Dimmitt, Texas
Current Conditions -  °F | °C
As of 7:15 AM on Thursday 27 Nov 2014 (Local Time) from KHRX Reporting Station
Clear Clear  
Wind Chill: 15°   Ceiling: Unl
Heat Index: 23°   Visibility: 10mi
Dew Point: 19°   Wind: 7mph
Humidity: 86%   Direction: 200°SSW
Pressure: 30.44"   Gusts: NA
Location:  34.55°N, 102.31°W
Report Text: KHRX 271315Z AUTO 20006KT 10SM CLR M05/M07 A3044 RMK AO2 T10511071
Loading
Personal Weather Stations






























Interactive Weather Map New forecast layout! Learn more

10-Day Weather Forecast

Advertisements
Track Severe Weather on mobile